SAVY/PMY METAR and TAF weather

Enter ICAO airport designator
Station Type Date Time Source
SAVY METAR 2021/04/07 00:15 UTC NOAA

SAVY 070015Z 07007KT 1800 BR SCT012 BKN060 17/17 Q1010


Station Type Date Time Source
SAVY Decoded METAR 2021/04/07 00:15 UTC NOAA

Puerto Madryn, CHT, Argentina (SAVY) 42-45-33S 065-06-10W
Apr 06, 2021 - 08:15 PM EDT / 2021.04.07 0015 UTC
Wind: from the ENE (070 degrees) at 8 MPH (7 KT):0
Visibility: 1 mile(s):0
Sky conditions: mostly cloudy
Weather: mist
Temperature: 62 F (17 C)
Dew Point: 62 F (17 C)
Relative Humidity: 100%
Pressure (altimeter): 29.83 in. Hg (1010 hPa)
ob: SAVY 070015Z 07007KT 1800 BR SCT012 BKN060 17/17 Q1010
cycle: 0

Station Type Date Time Source
SAVY TAF UTC NOAA

Error!

Example: see airport list